Time;durP1;ratioP1;P1;durP2;ratioP2;P2;SDS_P1;SDS_P2;PMS_P1;PMS_P2;Temp;Humidity;BMP_temperature;BMP_pressure;BME280_temperature;BME280_humidity;BME280_pressure;Samples;Min_cycle;Max_cycle;Signal;HPM_P1;HPM_P2
2022/12/27 00:01:28;;;;;;;16.77;11.97;;;;;;;6.92;97.04;98609.77;2282253;78;20988;-81
2022/12/27 00:04:26;;;;;;;17.03;12.07;;;;;;;6.92;97.19;98605.45;2281901;78;21310;-81
2022/12/27 00:07:27;;;;;;;15.37;11.67;;;;;;;6.94;97.55;98604.22;2281709;78;20949;-82
2022/12/27 00:10:27;;;;;;;18.93;12.80;;;;;;;6.92;98.01;98587.28;2281840;78;20981;-81
2022/12/27 00:13:28;;;;;;;17.77;12.37;;;;;;;6.95;97.78;98585.22;2281641;78;20973;-81
2022/12/27 00:16:28;;;;;;;16.63;12.27;;;;;;;6.99;98.28;98588.33;2288964;78;20995;-80
2022/12/27 00:19:28;;;;;;;17.20;12.47;;;;;;;7.01;98.22;98575.84;2291602;78;21007;-80
2022/12/27 00:22:29;;;;;;;17.73;12.20;;;;;;;7.03;98.32;98575.87;2291430;78;21276;-81
2022/12/27 00:25:29;;;;;;;19.40;12.80;;;;;;;7.08;98.19;98582.46;2291892;77;20967;-82
2022/12/27 00:28:33;;;;;;;17.53;12.90;;;;;;;7.08;98.19;98570.78;2298762;77;21033;-81
2022/12/27 00:31:33;;;;;;;18.03;12.80;;;;;;;7.15;98.72;98577.86;2292997;77;20925;-81
2022/12/27 00:34:34;;;;;;;19.00;13.13;;;;;;;7.18;98.76;98585.28;2291302;78;21327;-81
2022/12/27 00:37:34;;;;;;;17.60;12.80;;;;;;;7.23;98.98;98587.98;2291370;78;20928;-81
2022/12/27 00:40:34;;;;;;;16.40;12.80;;;;;;;7.27;99.00;98586.77;2291332;78;20936;-80
2022/12/27 00:43:35;;;;;;;20.50;13.83;;;;;;;7.32;99.39;98584.27;2291322;78;20917;-81
2022/12/27 00:46:35;;;;;;;20.60;14.70;;;;;;;7.37;99.36;98588.26;2291637;78;20907;-81
2022/12/27 00:49:35;;;;;;;20.87;13.93;;;;;;;7.42;99.64;98590.11;2291249;78;21351;-81
2022/12/27 00:52:36;;;;;;;21.77;14.77;;;;;;;7.47;99.39;98594.09;2291161;78;21382;-81
2022/12/27 00:55:36;;;;;;;20.43;14.23;;;;;;;7.51;99.60;98590.71;2290329;78;20889;-80
2022/12/27 00:58:37;;;;;;;23.47;15.53;;;;;;;7.53;99.60;98587.30;2290127;78;20984;-80
2022/12/27 01:01:37;;;;;;;22.17;15.43;;;;;;;7.56;99.74;98589.95;2289950;78;20944;-80
2022/12/27 01:04:37;;;;;;;27.17;15.93;;;;;;;7.58;99.53;98602.55;2290431;78;20889;-80
2022/12/27 01:07:38;;;;;;;22.67;16.03;;;;;;;7.59;100.00;98603.42;2290534;78;21315;-80
2022/12/27 01:10:38;;;;;;;23.17;15.47;;;;;;;7.60;100.00;98595.66;2291407;78;20958;-80
2022/12/27 01:13:38;;;;;;;30.20;15.90;;;;;;;7.62;100.00;98603.06;2291604;78;20916;-81
2022/12/27 01:16:39;;;;;;;20.40;14.13;;;;;;;7.61;100.00;98603.03;2284245;78;21013;-81
2022/12/27 01:19:39;;;;;;;22.30;14.07;;;;;;;7.58;100.00;98615.53;2281725;78;21066;-81
2022/12/27 01:22:40;;;;;;;17.67;12.37;;;;;;;7.57;100.00;98609.89;2281388;78;20921;-81
2022/12/27 01:25:40;;;;;;;20.00;11.50;;;;;;;7.56;100.00;98618.95;2281611;78;20978;-81
2022/12/27 01:28:41;;;;;;;13.53;9.77;;;;;;;7.52;100.00;98618.02;2281511;78;21329;-81
2022/12/27 01:31:41;;;;;;;11.67;8.80;;;;;;;7.51;100.00;98618.86;2281667;78;20894;-81
2022/12/27 01:34:41;;;;;;;13.40;8.07;;;;;;;7.50;100.00;98622.30;2281735;77;20957;-79
2022/12/27 01:37:42;;;;;;;11.53;8.57;;;;;;;7.51;100.00;98632.27;2281552;77;21341;-80
2022/12/27 01:40:42;;;;;;;8.43;5.93;;;;;;;7.50;100.00;98635.28;2281437;78;20973;-80
2022/12/27 01:43:43;;;;;;;10.60;5.83;;;;;;;7.48;100.00;98647.78;2281276;78;20930;-79
2022/12/27 01:46:43;;;;;;;5.93;4.83;;;;;;;7.44;100.00;98645.97;2281515;77;21293;-80
2022/12/27 01:49:43;;;;;;;9.50;4.73;;;;;;;7.41;100.00;98627.30;2281510;78;20986;-80
2022/12/27 01:52:44;;;;;;;4.70;3.33;;;;;;;7.39;100.00;98630.71;2281377;77;20949;-80
2022/12/27 01:55:44;;;;;;;4.87;3.00;;;;;;;7.35;100.00;98620.69;2280722;78;21352;-81
2022/12/27 01:58:45;;;;;;;5.73;3.10;;;;;;;7.35;100.00;98625.88;2274164;78;20926;-80
2022/12/27 02:01:45;;;;;;;4.87;2.67;;;;;;;7.32;100.00;98623.22;2281643;77;20970;-81
2022/12/27 02:04:45;;;;;;;3.23;2.50;;;;;;;7.32;100.00;98616.73;2281883;77;20929;-81
2022/12/27 02:07:46;;;;;;;4.60;2.60;;;;;;;7.31;100.00;98618.87;2281725;78;20942;-83
2022/12/27 02:10:46;;;;;;;3.57;2.57;;;;;;;7.30;100.00;98612.80;2281513;78;21278;-82
2022/12/27 02:13:47;;;;;;;4.53;2.40;;;;;;;7.29;100.00;98623.16;2281585;78;20904;-81
2022/12/27 02:16:47;;;;;;;4.93;3.20;;;;;;;7.28;100.00;98608.42;2258605;77;20956;-83
2022/12/27 02:19:47;;;;;;;3.50;2.80;;;;;;;7.27;100.00;98607.97;2249363;79;20976;-82
2022/12/27 02:26:07;;;;;;;26.57;11.97;;;;;;;7.27;100.00;98600.17;2249402;78;20980;-82
2022/12/27 02:29:07;;;;;;;6.13;3.90;;;;;;;7.91;100.00;98610.14;2249458;79;20991;-81
2022/12/27 02:32:07;;;;;;;5.20;4.10;;;;;;;10.50;100.00;98607.27;2249453;79;21308;-81
2022/12/27 02:35:08;;;;;;;4.10;3.70;;;;;;;11.82;100.00;98601.55;2249393;78;20919;-82
2022/12/27 02:38:08;;;;;;;11.03;6.90;;;;;;;13.71;96.58;98593.19;2249207;78;20947;-82
2022/12/27 02:54:26;;;;;;;5.40;4.85;;;;;;;13.16;76.95;98633.97;2249158;78;21298;-82
2022/12/27 02:57:27;;;;;;;7.20;5.63;;;;;;;12.02;74.91;98637.35;2249286;78;21431;-82
2022/12/27 03:03:45;;;;;;;5.60;4.57;;;;;;;9.55;84.11;98655.31;2249098;78;20944;-82
2022/12/27 03:06:46;;;;;;;5.23;4.17;;;;;;;9.14;87.52;98649.52;2249154;79;20908;-81
2022/12/27 03:16:24;;;;;;;5.07;3.20;;;;;;;8.39;89.79;98675.61;2269862;77;21295;-84
2022/12/27 03:26:02;;;;;;;2.63;1.70;;;;;;;7.07;93.89;98690.59;2291160;77;20983;-81
2022/12/27 03:35:39;;;;;;;3.87;1.90;;;;;;;6.77;96.15;98696.32;2291626;78;21280;-81
2022/12/27 03:38:42;;;;;;;2.13;1.93;;;;;;;6.65;96.93;98699.07;2291145;78;20936;-81
2022/12/27 03:44:59;;;;;;;3.87;2.40;;;;;;;6.53;98.11;98703.08;2291000;78;20940;-81
2022/12/27 03:47:59;;;;;;;2.87;2.50;;;;;;;6.47;98.10;98709.40;2291099;78;20940;-81
2022/12/27 03:51:03;;;;;;;3.07;2.70;;;;;;;6.39;100.00;98725.64;2291398;78;21284;-81
2022/12/27 03:54:00;;;;;;;3.40;2.67;;;;;;;6.39;100.00;98725.64;2291303;78;20948;-81
2022/12/27 03:57:00;;;;;;;4.70;2.77;;;;;;;6.37;100.00;98730.32;2291116;78;21070;-80
2022/12/27 04:00:01;;;;;;;3.80;2.40;;;;;;;6.33;100.00;98734.55;2291265;78;20932;-80
2022/12/27 04:03:01;;;;;;;4.90;2.70;;;;;;;6.29;100.00;98756.05;2291052;78;20921;-81
2022/12/27 04:06:01;;;;;;;4.03;2.90;;;;;;;6.26;100.00;98749.89;2291271;78;20937;-81
2022/12/27 04:35:31;;;;;;;3.73;3.10;;;;;;;6.08;100.00;98779.19;2248884;78;21471;-81
2022/12/27 04:38:32;;;;;;;4.63;3.57;;;;;;;6.12;100.00;98796.16;2249044;79;21309;-81
2022/12/27 04:54:56;;;;;;;4.20;3.80;;;;;;;6.38;100.00;98828.00;2248050;78;21326;-83
2022/12/27 04:57:56;;;;;;;3.67;3.37;;;;;;;6.60;100.00;98842.02;2248748;79;21030;-83
2022/12/27 05:04:15;;;;;;;5.20;3.90;;;;;;;6.35;100.00;98839.17;2248251;78;20931;-84
2022/12/27 05:13:59;;;;;;;4.43;3.43;;;;;;;5.64;100.00;98884.46;2247335;78;20920;-85
2022/12/27 05:16:59;;;;;;;3.77;3.20;;;;;;;5.43;100.00;98910.54;2246661;77;21292;-85
2022/12/27 05:20:00;;;;;;;3.30;2.80;;;;;;;5.32;100.00;98910.60;2247429;79;20979;-86
2022/12/27 05:26:19;;;;;;;6.70;2.97;;;;;;;5.11;100.00;98928.84;2247342;78;21303;-86
2022/12/27 05:29:20;;;;;;;5.10;2.93;;;;;;;4.98;100.00;98942.17;2246936;79;20940;-84
2022/12/27 05:32:20;;;;;;;3.30;2.50;;;;;;;4.88;100.00;98954.31;2247683;79;21040;-85
2022/12/27 05:35:20;;;;;;;7.83;3.10;;;;;;;4.79;100.00;98946.22;2247381;78;20979;-84
2022/12/27 05:38:21;;;;;;;4.50;2.77;;;;;;;4.70;99.93;98974.33;2247898;79;20963;-83
2022/12/27 05:41:21;;;;;;;6.70;3.13;;;;;;;4.64;99.55;98958.59;2248257;79;21332;-84
2022/12/27 05:44:22;;;;;;;3.10;2.27;;;;;;;4.51;96.41;98989.57;2248122;78;20947;-86
2022/12/27 05:47:22;;;;;;;5.63;2.70;;;;;;;4.36;96.98;98976.06;2247754;79;20924;-85
2022/12/27 05:50:22;;;;;;;5.43;3.10;;;;;;;4.26;98.75;98994.59;2247670;78;21426;-87
2022/12/27 05:53:23;;;;;;;6.60;2.60;;;;;;;4.19;98.43;98997.34;2248085;79;20987;-87
2022/12/27 05:56:23;;;;;;;3.30;2.93;;;;;;;4.13;97.98;99004.86;2248152;78;20978;-84
2022/12/27 05:59:24;;;;;;;6.17;2.43;;;;;;;4.02;97.56;99011.30;2247516;78;21375;-83
2022/12/27 06:02:24;;;;;;;8.57;2.90;;;;;;;3.93;95.80;99016.97;2247881;78;20995;-84
2022/12/27 06:05:24;;;;;;;5.80;2.60;;;;;;;3.86;96.02;99000.76;2247487;79;21312;-84
2022/12/27 06:08:25;;;;;;;7.93;3.87;;;;;;;3.79;97.21;99011.25;2247512;79;21031;-86
2022/12/27 06:11:25;;;;;;;8.37;3.40;;;;;;;3.71;97.33;99022.08;2247818;79;20941;-87
2022/12/27 06:14:26;;;;;;;5.47;3.40;;;;;;;3.63;97.81;99031.20;2247301;78;21347;-86
2022/12/27 06:17:26;;;;;;;9.47;3.97;;;;;;;3.56;97.89;99039.09;2272283;77;20999;-85
2022/12/27 06:20:27;;;;;;;14.33;4.80;;;;;;;3.49;98.11;99040.95;2289802;78;20994;-86
2022/12/27 06:23:27;;;;;;;10.80;4.63;;;;;;;3.40;98.36;99057.29;2289274;78;20975;-89
2022/12/27 06:26:27;;;;;;;8.07;4.10;;;;;;;3.33;98.22;99065.58;2288724;78;20940;-87
2022/12/27 06:29:28;;;;;;;11.63;4.17;;;;;;;3.26;98.28;99065.72;2288514;78;20999;-87
2022/12/27 06:32:28;;;;;;;8.77;4.77;;;;;;;3.20;98.22;99072.78;2288575;78;20991;-88
2022/12/27 06:35:28;;;;;;;19.13;9.43;;;;;;;3.16;98.37;99090.23;2288168;78;21004;-87
2022/12/27 06:38:29;;;;;;;29.43;14.23;;;;;;;3.11;98.23;99098.17;2288416;78;21759;-90
2022/12/27 06:41:29;;;;;;;21.00;8.60;;;;;;;3.06;98.43;99109.97;2289153;78;20955;-88
2022/12/27 06:44:30;;;;;;;12.80;5.33;;;;;;;3.03;98.95;99107.26;2289385;78;20999;-88
2022/12/27 06:47:30;;;;;;;12.33;6.07;;;;;;;3.00;98.95;99107.52;2289298;78;21363;-88
2022/12/27 06:50:30;;;;;;;12.10;4.60;;;;;;;2.98;99.06;99117.77;2288879;78;20947;-87
2022/12/27 06:53:31;;;;;;;9.73;4.30;;;;;;;2.96;99.23;99129.70;2288457;78;20924;-87
2022/12/27 06:56:34;;;;;;;21.17;5.80;;;;;;;2.91;99.24;99136.34;2288092;78;20975;-88
2022/12/27 06:59:38;;;;;;;12.73;4.73;;;;;;;2.88;98.89;99137.09;2288206;78;21050;-87
2022/12/27 07:02:38;;;;;;;13.47;5.53;;;;;;;2.87;98.94;99143.47;2288671;78;20959;-88
2022/12/27 07:05:39;;;;;;;17.17;5.63;;;;;;;2.84;98.93;99137.77;2289154;78;20956;-87
2022/12/27 07:08:39;;;;;;;15.83;8.90;;;;;;;2.81;99.23;99133.75;2289115;78;21756;-88
2022/12/27 07:11:39;;;;;;;29.53;10.40;;;;;;;2.77;99.41;99138.28;2289637;78;20951;-87
2022/12/27 07:14:40;;;;;;;20.47;7.50;;;;;;;2.75;99.64;99146.76;2289197;78;20955;-87
2022/12/27 07:17:46;;;;;;;20.30;7.20;;;;;;;2.73;99.57;99147.98;2262827;77;21014;-88
2022/12/27 07:20:46;;;;;;;13.60;5.90;;;;;;;2.69;100.00;99169.27;2247425;79;21324;-86
2022/12/27 07:23:47;;;;;;;14.07;4.50;;;;;;;2.69;100.00;99169.27;2247766;78;20912;-86
2022/12/27 07:26:47;;;;;;;15.17;4.73;;;;;;;2.69;99.80;99172.25;2248446;79;20928;-86
2022/12/27 07:29:47;;;;;;;17.83;5.03;;;;;;;2.72;100.00;99193.02;2248170;79;21362;-87
2022/12/27 07:32:48;;;;;;;16.17;5.20;;;;;;;2.72;100.00;99193.02;2248508;79;20984;-86
2022/12/27 07:35:48;;;;;;;17.17;5.57;;;;;;;2.81;100.00;99194.74;2248054;78;20930;-86
2022/12/27 07:38:48;;;;;;;15.00;4.97;;;;;;;2.87;99.85;99202.77;2248300;78;20920;-85
2022/12/27 07:41:49;;;;;;;22.47;7.13;;;;;;;2.90;99.44;99204.20;2247888;79;20920;-86
2022/12/27 07:44:49;;;;;;;22.07;7.60;;;;;;;2.94;99.25;99203.94;2247907;78;20939;-86
2022/12/27 07:47:50;;;;;;;37.93;11.07;;;;;;;2.98;98.81;99206.73;2247108;79;20897;-85
2022/12/27 07:50:50;;;;;;;20.40;7.07;;;;;;;2.99;98.60;99216.64;2247627;78;20979;-85
2022/12/27 07:53:50;;;;;;;25.77;6.93;;;;;;;2.98;98.47;99209.72;2248298;79;20920;-86
2022/12/27 07:56:51;;;;;;;23.17;6.40;;;;;;;2.96;98.34;99215.22;2247653;79;20940;-87
2022/12/27 07:59:51;;;;;;;18.90;6.13;;;;;;;2.99;98.22;99220.52;2246914;78;21011;-85
2022/12/27 08:02:52;;;;;;;18.80;7.10;;;;;;;3.04;98.16;99219.92;2247140;79;20944;-85
2022/12/27 08:05:52;;;;;;;21.67;6.03;;;;;;;3.15;98.20;99225.17;2246969;78;20951;-84
2022/12/27 08:08:52;;;;;;;28.13;7.27;;;;;;;3.24;97.81;99229.00;2246433;79;21026;-85
2022/12/27 08:11:53;;;;;;;20.57;7.40;;;;;;;3.30;97.54;99234.45;2247358;78;20971;-86
2022/12/27 08:14:53;;;;;;;21.13;7.83;;;;;;;3.37;97.25;99242.95;2246901;79;20916;-86
2022/12/27 08:17:54;;;;;;;17.00;8.27;;;;;;;3.39;97.02;99254.22;2247126;77;20971;-87
2022/12/27 08:20:54;;;;;;;14.60;6.03;;;;;;;3.39;97.02;99254.22;2247573;78;21385;-89
2022/12/27 08:23:54;;;;;;;16.60;6.90;;;;;;;3.44;96.69;99261.77;2247754;79;21020;-86
2022/12/27 08:26:55;;;;;;;17.13;6.93;;;;;;;3.48;96.19;99266.30;2248116;78;20914;-86
2022/12/27 08:29:55;;;;;;;16.63;7.03;;;;;;;3.53;96.10;99266.10;2247339;78;21022;-84
2022/12/27 08:32:56;;;;;;;21.63;7.10;;;;;;;3.61;95.33;99281.94;2247339;78;20986;-86
2022/12/27 08:35:57;;;;;;;16.17;6.50;;;;;;;3.61;95.33;99281.94;2248602;79;20876;-85
2022/12/27 08:38:57;;;;;;;16.13;6.93;;;;;;;3.63;94.85;99288.94;2248827;79;20920;-85
2022/12/27 08:42:00;;;;;;;16.40;7.20;;;;;;;3.64;94.99;99297.57;2248523;79;20919;-84
2022/12/27 08:44:59;;;;;;;17.37;6.63;;;;;;;3.65;94.67;99312.25;2225600;79;21716;-84
2022/12/27 08:48:00;;;;;;;23.13;6.90;;;;;;;3.74;94.58;99320.42;2247253;78;20948;-85
2022/12/27 08:51:00;;;;;;;12.57;4.43;;;;;;;3.81;93.88;99336.27;2247874;78;21003;-85
2022/12/27 08:54:00;;;;;;;20.87;6.70;;;;;;;3.78;93.19;99337.41;2247106;79;21733;-84
2022/12/27 08:57:01;;;;;;;14.87;7.37;;;;;;;3.83;93.36;99343.67;2247683;78;21000;-83
2022/12/27 09:00:01;;;;;;;12.33;5.50;;;;;;;3.89;91.30;99345.66;2247854;78;20979;-84
2022/12/27 09:03:02;;;;;;;14.17;5.90;;;;;;;3.90;90.70;99342.66;2247261;78;20940;-83
2022/12/27 09:06:02;;;;;;;14.53;6.27;;;;;;;3.94;91.26;99336.41;2247255;78;20916;-85
2022/12/27 09:09:02;;;;;;;14.43;5.33;;;;;;;4.09;90.02;99341.39;2247953;78;20983;-84
2022/12/27 09:12:03;;;;;;;12.80;5.20;;;;;;;4.16;89.23;99351.19;2246941;79;20943;-85
2022/12/27 09:15:03;;;;;;;16.70;5.27;;;;;;;4.29;89.34;99357.79;2248063;78;20917;-85
2022/12/27 09:18:04;;;;;;;11.37;4.73;;;;;;;4.31;87.82;99353.16;2265673;77;20981;-84
2022/12/27 09:21:04;;;;;;;11.20;4.47;;;;;;;4.26;86.15;99366.70;2281179;77;20972;-84
2022/12/27 09:24:04;;;;;;;10.83;4.17;;;;;;;4.17;87.40;99362.00;2280223;78;20929;-84
2022/12/27 09:27:05;;;;;;;12.60;4.60;;;;;;;4.16;88.45;99360.23;2280300;77;20969;-84
2022/12/27 09:30:05;;;;;;;16.97;5.30;;;;;;;4.18;87.55;99366.35;2279978;77;21420;-83
2022/12/27 09:33:06;;;;;;;14.37;4.27;;;;;;;4.21;86.29;99381.11;2279719;77;21389;-84
2022/12/27 09:36:06;;;;;;;14.97;4.57;;;;;;;4.24;86.95;99371.80;2280040;78;20986;-84
2022/12/27 09:39:08;;;;;;;17.63;5.17;;;;;;;4.29;87.33;99379.34;2280711;78;20937;-83
2022/12/27 09:42:10;;;;;;;19.43;5.60;;;;;;;4.28;86.30;99374.99;2280846;78;21280;-84
2022/12/27 09:45:08;;;;;;;14.23;4.27;;;;;;;4.28;86.18;99370.23;2280584;78;20954;-84
2022/12/27 09:48:08;;;;;;;18.27;5.07;;;;;;;4.27;85.48;99374.92;2281240;78;20982;-83
2022/12/27 09:51:08;;;;;;;10.60;3.73;;;;;;;4.27;85.07;99366.77;2281172;77;20958;-83
2022/12/27 09:54:08;;;;;;;11.07;4.33;;;;;;;4.33;83.74;99369.63;2281519;78;20926;-83
2022/12/27 09:57:09;;;;;;;10.93;4.37;;;;;;;4.39;84.49;99369.93;2281423;77;20929;-84
2022/12/27 10:00:09;;;;;;;15.33;4.23;;;;;;;4.52;84.19;99370.47;2280195;77;20981;-84
2022/12/27 10:03:11;;;;;;;18.07;5.77;;;;;;;4.57;85.44;99362.50;2280563;78;20911;-83
2022/12/27 10:06:10;;;;;;;11.30;3.90;;;;;;;4.60;83.82;99375.56;2281828;78;21384;-83
2022/12/27 10:09:10;;;;;;;14.50;4.23;;;;;;;4.55;83.24;99379.24;2281808;77;20965;-84
2022/12/27 10:12:11;;;;;;;10.90;3.97;;;;;;;4.54;83.37;99370.13;2280867;78;20966;-85
2022/12/27 10:15:11;;;;;;;13.47;6.50;;;;;;;4.51;82.89;99371.28;2280513;78;20946;-84
2022/12/27 10:18:12;;;;;;;12.63;5.23;;;;;;;4.56;84.25;99376.25;2264770;77;20987;-84
2022/12/27 10:21:12;;;;;;;16.13;5.97;;;;;;;4.59;82.31;99388.91;2248768;79;21020;-85
2022/12/27 10:24:12;;;;;;;13.20;5.50;;;;;;;4.67;83.37;99384.95;2248128;78;20978;-87
2022/12/27 10:27:14;;;;;;;14.70;6.13;;;;;;;5.98;97.61;99373.98;2247659;78;21389;-86
2022/12/27 10:30:13;;;;;;;22.03;9.00;;;;;;;8.13;93.06;99371.04;2246995;79;21343;-89
2022/12/27 10:33:14;;;;;;;16.87;5.63;;;;;;;10.34;89.41;99363.34;2247178;78;20947;-88
2022/12/27 10:36:14;;;;;;;19.07;8.47;;;;;;;11.06;76.05;99364.78;2246966;78;21714;-88
2022/12/27 10:39:15;;;;;;;17.97;6.27;;;;;;;12.38;71.83;99363.44;2246913;78;20912;-88
2022/12/27 10:42:15;;;;;;;14.77;6.67;;;;;;;12.39;70.91;99359.96;2247553;78;20959;-87
2022/12/27 10:45:15;;;;;;;13.43;5.60;;;;;;;11.73;71.19;99365.94;2246841;79;21348;-87
2022/12/27 10:48:16;;;;;;;11.17;4.50;;;;;;;11.18;66.45;99372.41;2246479;79;20968;-85
2022/12/27 10:51:16;;;;;;;15.50;7.33;;;;;;;11.15;66.47;99368.44;2246975;79;20916;-88
2022/12/27 10:54:17;;;;;;;19.10;8.60;;;;;;;11.75;71.38;99378.19;2245831;78;21406;-87
2022/12/27 10:57:17;;;;;;;15.08;6.25;;;;;;;11.74;62.05;99386.01;2247180;79;20984;-87
2022/12/27 11:00:17;;;;;;;16.57;5.92;;;;;;;11.12;61.46;99388.41;2247161;78;20932;-87
2022/12/27 11:03:18;;;;;;;17.82;7.00;;;;;;;11.26;64.48;99388.66;2247167;79;20934;-88
2022/12/27 11:06:19;;;;;;;21.48;7.50;;;;;;;11.17;60.76;99394.59;2247731;78;20945;-89
2022/12/27 11:09:19;;;;;;;13.57;5.90;;;;;;;10.98;62.85;99397.30;2247772;79;21417;-84
2022/12/27 11:12:19;;;;;;;20.70;7.13;;;;;;;9.64;56.85;99389.53;2248286;78;20964;-82
2022/12/27 11:15:19;;;;;;;14.30;5.50;;;;;;;8.25;61.95;99404.80;2248527;78;21458;-83
2022/12/27 11:18:20;;;;;;;12.90;5.70;;;;;;;7.30;64.34;99398.69;2248073;77;20951;-82
2022/12/27 11:21:20;;;;;;;10.83;3.93;;;;;;;6.65;66.65;99412.82;2247152;78;20972;-87
2022/12/27 11:24:21;;;;;;;16.13;3.90;;;;;;;7.46;72.25;99402.68;2246924;78;20912;-87
2022/12/27 11:27:21;;;;;;;13.07;5.33;;;;;;;8.67;69.55;99388.72;2247446;79;20912;-87
2022/12/27 11:30:22;;;;;;;9.27;3.70;;;;;;;9.92;66.31;99379.33;2247073;78;21036;-82
2022/12/27 11:33:22;;;;;;;8.73;3.80;;;;;;;9.52;65.57;99381.84;2248634;79;20928;-84
2022/12/27 11:36:22;;;;;;;15.50;5.23;;;;;;;8.51;61.73;99392.58;2247660;79;20923;-82
2022/12/27 11:39:23;;;;;;;16.43;6.10;;;;;;;7.33;63.91;99384.52;2247716;78;20956;-82
2022/12/27 11:42:23;;;;;;;17.57;5.43;;;;;;;6.69;66.24;99392.23;2247832;79;20943;-82
2022/12/27 11:45:23;;;;;;;15.10;6.93;;;;;;;6.33;67.90;99392.19;2247723;79;21625;-81
2022/12/27 11:48:24;;;;;;;14.13;6.87;;;;;;;6.13;69.13;99397.92;2247603;78;21667;-82
2022/12/27 11:51:24;;;;;;;16.40;6.90;;;;;;;6.03;69.20;99389.30;2247048;79;20931;-81
2022/12/27 11:54:25;;;;;;;13.83;5.33;;;;;;;5.85;70.60;99397.62;2247808;79;20935;-83
2022/12/27 11:57:25;;;;;;;13.83;4.87;;;;;;;5.82;70.63;99394.50;2247485;78;21358;-83
2022/12/27 12:00:26;;;;;;;9.50;4.10;;;;;;;5.80;71.38;99397.84;2247372;78;21007;-82
2022/12/27 12:03:26;;;;;;;17.93;5.10;;;;;;;5.67;70.77;99397.78;2247942;79;20947;-81
2022/12/27 12:06:26;;;;;;;17.23;6.17;;;;;;;5.49;70.90;99401.81;2247421;79;21003;-83
2022/12/27 12:09:27;;;;;;;14.33;5.20;;;;;;;5.38;70.62;99405.25;2247973;79;20995;-84
2022/12/27 12:12:27;;;;;;;9.03;4.70;;;;;;;5.19;70.55;99394.05;2249118;78;20951;-84
2022/12/27 12:15:27;;;;;;;15.73;5.07;;;;;;;5.07;71.61;99399.59;2248228;78;20916;-83
2022/12/27 12:18:28;;;;;;;20.10;5.93;;;;;;;4.99;72.06;99400.56;2264452;77;20983;-81
2022/12/27 12:21:28;;;;;;;13.00;6.30;;;;;;;5.00;72.25;99401.03;2289744;78;20893;-82
2022/12/27 12:24:29;;;;;;;14.30;5.10;;;;;;;5.12;71.93;99402.84;2289891;78;20971;-82
2022/12/27 12:27:29;;;;;;;11.03;4.80;;;;;;;5.26;71.69;99403.86;2289888;78;20912;-81
2022/12/27 12:30:29;;;;;;;12.47;5.87;;;;;;;5.44;71.93;99401.63;2290539;78;21446;-83
2022/12/27 12:33:30;;;;;;;10.73;5.10;;;;;;;5.37;72.66;99413.84;2290942;78;20944;-81
2022/12/27 12:36:30;;;;;;;13.33;6.50;;;;;;;5.33;72.38;99414.53;2290335;78;21368;-82
2022/12/27 12:39:30;;;;;;;18.03;6.87;;;;;;;5.29;72.50;99418.23;2291103;78;21422;-83
2022/12/27 12:42:31;;;;;;;14.03;5.13;;;;;;;5.22;72.85;99415.80;2290415;78;20969;-83
2022/12/27 12:45:31;;;;;;;6.77;3.60;;;;;;;5.10;71.52;99416.54;2290017;78;20959;-83
2022/12/27 12:48:32;;;;;;;12.17;5.00;;;;;;;4.94;71.30;99428.34;2290227;78;20984;-82
2022/12/27 12:51:32;;;;;;;14.20;4.23;;;;;;;4.74;71.56;99414.55;2289413;78;20916;-81
2022/12/27 12:54:33;;;;;;;6.50;3.37;;;;;;;4.62;70.22;99430.81;2289523;78;20967;-82
2022/12/27 12:57:33;;;;;;;13.57;4.77;;;;;;;4.58;70.90;99438.84;2289360;78;20979;-83
2022/12/27 13:00:35;;;;;;;11.83;4.80;;;;;;;4.58;71.84;99442.72;2288910;78;21862;-81
2022/12/27 13:03:34;;;;;;;20.40;6.17;;;;;;;4.64;72.58;99445.99;2289582;78;21007;-82
2022/12/27 13:06:34;;;;;;;17.00;8.03;;;;;;;4.70;72.88;99438.51;2289708;78;20920;-82
2022/12/27 13:09:35;;;;;;;19.00;9.13;;;;;;;4.84;73.31;99437.81;2288897;78;20996;-82
2022/12/27 13:12:35;;;;;;;20.63;7.20;;;;;;;4.87;72.40;99435.37;2289190;78;20987;-83
2022/12/27 13:15:35;;;;;;;23.80;7.73;;;;;;;4.82;72.83;99448.09;2290025;78;20880;-82
2022/12/27 13:18:36;;;;;;;22.87;9.20;;;;;;;4.78;73.20;99446.20;2285445;78;21387;-83
2022/12/27 13:21:36;;;;;;;21.67;5.50;;;;;;;4.79;73.35;99451.84;2279141;78;20989;-83
2022/12/27 13:24:37;;;;;;;14.47;5.83;;;;;;;4.77;72.99;99454.36;2277772;77;21640;-82
2022/12/27 13:27:37;;;;;;;16.83;6.10;;;;;;;4.75;72.81;99456.41;2277222;78;20917;-82
2022/12/27 13:30:37;;;;;;;16.67;6.87;;;;;;;4.75;73.03;99453.41;2277149;78;21025;-81
2022/12/27 13:33:38;;;;;;;17.07;5.70;;;;;;;4.77;73.36;99453.07;2277771;78;21348;-82
2022/12/27 13:36:38;;;;;;;13.13;6.23;;;;;;;4.74;73.13;99449.46;2277562;77;20922;-81
2022/12/27 13:39:39;;;;;;;15.03;6.27;;;;;;;4.69;73.17;99447.08;2278444;77;20909;-82
2022/12/27 13:42:39;;;;;;;15.13;6.10;;;;;;;4.65;72.82;99455.52;2279718;77;20921;-83
2022/12/27 13:45:39;;;;;;;15.70;5.97;;;;;;;4.60;73.15;99460.48;2279899;78;21270;-83
2022/12/27 13:48:40;;;;;;;22.20;7.00;;;;;;;4.54;72.88;99465.38;2280023;78;21081;-83
2022/12/27 13:51:41;;;;;;;14.47;6.57;;;;;;;4.53;73.13;99471.77;2280010;78;20982;-82
2022/12/27 13:54:41;;;;;;;18.23;5.50;;;;;;;4.49;73.18;99473.34;2279823;77;21376;-81
2022/12/27 13:57:41;;;;;;;17.33;6.77;;;;;;;4.47;73.40;99478.44;2279332;78;20890;-81
2022/12/27 14:00:41;;;;;;;15.93;5.83;;;;;;;4.45;73.64;99477.48;2278534;77;21029;-80
2022/12/27 14:03:42;;;;;;;12.87;5.57;;;;;;;4.44;73.28;99480.88;2278383;77;21348;-80
2022/12/27 14:06:42;;;;;;;16.30;5.90;;;;;;;4.45;73.58;99477.48;2278439;78;20914;-81
2022/12/27 14:09:43;;;;;;;18.97;7.20;;;;;;;4.50;73.76;99475.11;2279665;78;21038;-83
2022/12/27 14:12:43;;;;;;;14.80;6.30;;;;;;;4.46;73.69;99474.08;2278766;77;20918;-82
2022/12/27 14:15:43;;;;;;;15.90;7.40;;;;;;;4.41;73.87;99470.40;2278606;78;20938;-81
2022/12/27 14:18:44;;;;;;;17.87;7.90;;;;;;;4.38;74.03;99466.38;2268136;78;20932;-80
2022/12/27 14:21:44;;;;;;;21.47;8.13;;;;;;;4.38;74.20;99469.38;2245904;79;20952;-82
2022/12/27 14:24:45;;;;;;;16.63;7.43;;;;;;;4.36;74.03;99473.59;2246134;78;20967;-82
2022/12/27 14:27:45;;;;;;;19.90;8.77;;;;;;;4.32;74.00;99472.94;2245532;79;20924;-82
2022/12/27 14:30:45;;;;;;;22.07;8.63;;;;;;;4.27;74.40;99484.35;2245470;79;21358;-81
2022/12/27 14:33:46;;;;;;;23.37;8.33;;;;;;;4.28;74.83;99476.19;2245933;79;20948;-82
2022/12/27 14:36:46;;;;;;;21.13;7.30;;;;;;;4.25;74.71;99481.22;2247352;79;20916;-82
2022/12/27 14:39:47;;;;;;;18.97;6.63;;;;;;;4.23;74.98;99472.09;2246661;78;20915;-81
2022/12/27 14:42:47;;;;;;;11.93;5.77;;;;;;;4.22;74.79;99480.66;2247952;78;20892;-82
2022/12/27 14:45:47;;;;;;;10.23;4.23;;;;;;;4.25;75.33;99482.51;2248965;79;20932;-82
2022/12/27 14:48:48;;;;;;;16.63;4.20;;;;;;;4.26;75.51;99485.57;2248783;79;20939;-83
2022/12/27 14:51:48;;;;;;;29.10;5.13;;;;;;;4.26;75.51;99485.57;2248025;79;20912;-82
2022/12/27 14:54:49;;;;;;;30.60;5.80;;;;;;;4.28;75.38;99492.98;2248085;79;20965;-83
2022/12/27 14:57:49;;;;;;;27.73;5.27;;;;;;;4.30;75.40;99496.13;2248650;79;20966;-83
2022/12/27 15:00:49;;;;;;;22.17;5.40;;;;;;;4.30;75.76;99500.00;2248449;78;20960;-82
2022/12/27 15:03:51;;;;;;;13.53;5.03;;;;;;;4.31;75.67;99494.42;2249148;78;20935;-83
2022/12/27 15:06:50;;;;;;;29.27;6.77;;;;;;;4.32;75.63;99499.66;2249288;79;21300;-83
2022/12/27 15:09:51;;;;;;;19.23;6.17;;;;;;;4.30;75.77;99503.88;2248791;79;20956;-81
2022/12/27 15:12:51;;;;;;;21.10;7.37;;;;;;;4.27;75.25;99503.73;2248664;78;20932;-82
2022/12/27 15:15:52;;;;;;;18.50;6.27;;;;;;;4.24;75.36;99512.63;2249112;79;20912;-82
2022/12/27 15:18:52;;;;;;;18.93;6.77;;;;;;;4.23;75.54;99512.56;2259698;77;21383;-82
2022/12/27 15:21:52;;;;;;;18.13;6.80;;;;;;;4.22;76.09;99509.09;2290412;78;20919;-82
2022/12/27 15:24:53;;;;;;;20.67;7.87;;;;;;;4.21;76.03;99507.32;2290117;78;21644;-81
2022/12/27 15:27:53;;;;;;;22.10;8.53;;;;;;;4.21;76.15;99509.02;2288970;78;20892;-81
2022/12/27 15:30:53;;;;;;;29.47;8.40;;;;;;;4.18;76.30;99508.47;2288378;78;20944;-81
2022/12/27 15:33:54;;;;;;;21.93;6.93;;;;;;;4.13;76.35;99512.53;2288681;78;21412;-81
2022/12/27 15:36:54;;;;;;;16.00;6.93;;;;;;;4.09;76.43;99517.08;2289760;78;20912;-81
2022/12/27 15:39:55;;;;;;;12.97;5.20;;;;;;;4.06;76.59;99510.06;2290337;78;20935;-82
2022/12/27 15:42:55;;;;;;;19.63;5.80;;;;;;;4.06;76.56;99511.36;2290620;78;20944;-83